sensor_id;sensor_type;location;lat;lon;timestamp;P1;durP1;ratioP1;P2;durP2;ratioP2
70549;SDS011;58101;48.658;2.328;2022-07-23T00:01:05;24.27;;;13.48;;
70549;SDS011;58101;48.658;2.328;2022-07-23T00:03:31;23.27;;;14.10;;
70549;SDS011;58101;48.658;2.328;2022-07-23T00:05:56;25.77;;;14.18;;
70549;SDS011;58101;48.658;2.328;2022-07-23T00:08:22;24.27;;;13.43;;
70549;SDS011;58101;48.658;2.328;2022-07-23T00:10:48;23.33;;;13.25;;
70549;SDS011;58101;48.658;2.328;2022-07-23T00:13:13;24.25;;;14.20;;
70549;SDS011;58101;48.658;2.328;2022-07-23T00:15:39;25.23;;;14.57;;
70549;SDS011;58101;48.658;2.328;2022-07-23T00:18:05;30.33;;;16.40;;
70549;SDS011;58101;48.658;2.328;2022-07-23T00:20:30;26.33;;;16.00;;
70549;SDS011;58101;48.658;2.328;2022-07-23T00:22:56;31.60;;;17.45;;
70549;SDS011;58101;48.658;2.328;2022-07-23T00:25:22;30.77;;;17.30;;
70549;SDS011;58101;48.658;2.328;2022-07-23T00:27:58;32.38;;;17.58;;
70549;SDS011;58101;48.658;2.328;2022-07-23T00:30:25;33.63;;;17.75;;
70549;SDS011;58101;48.658;2.328;2022-07-23T00:32:55;33.65;;;17.65;;
70549;SDS011;58101;48.658;2.328;2022-07-23T00:35:23;32.50;;;17.92;;
70549;SDS011;58101;48.658;2.328;2022-07-23T00:37:50;32.85;;;18.50;;
70549;SDS011;58101;48.658;2.328;2022-07-23T00:40:16;32.95;;;18.20;;
70549;SDS011;58101;48.658;2.328;2022-07-23T00:42:42;37.65;;;18.88;;
70549;SDS011;58101;48.658;2.328;2022-07-23T00:45:07;36.28;;;18.65;;
70549;SDS011;58101;48.658;2.328;2022-07-23T00:50:30;32.88;;;18.05;;
70549;SDS011;58101;48.658;2.328;2022-07-23T00:52:56;35.50;;;19.95;;
70549;SDS011;58101;48.658;2.328;2022-07-23T00:55:34;33.83;;;19.00;;
70549;SDS011;58101;48.658;2.328;2022-07-23T00:57:59;35.38;;;19.38;;
70549;SDS011;58101;48.658;2.328;2022-07-23T01:00:26;33.72;;;18.73;;
70549;SDS011;58101;48.658;2.328;2022-07-23T01:02:52;35.05;;;19.20;;
70549;SDS011;58101;48.658;2.328;2022-07-23T01:05:18;35.45;;;18.95;;
70549;SDS011;58101;48.658;2.328;2022-07-23T01:07:47;37.45;;;19.40;;
70549;SDS011;58101;48.658;2.328;2022-07-23T01:10:14;36.58;;;20.08;;
70549;SDS011;58101;48.658;2.328;2022-07-23T01:13:07;33.60;;;18.88;;
70549;SDS011;58101;48.658;2.328;2022-07-23T01:15:35;34.08;;;18.88;;
70549;SDS011;58101;48.658;2.328;2022-07-23T01:18:02;34.55;;;18.45;;
70549;SDS011;58101;48.658;2.328;2022-07-23T01:20:29;32.28;;;18.77;;
70549;SDS011;58101;48.658;2.328;2022-07-23T01:25:53;33.00;;;17.98;;
70549;SDS011;58101;48.658;2.328;2022-07-23T01:31:23;36.90;;;18.70;;
70549;SDS011;58101;48.658;2.328;2022-07-23T01:36:42;31.10;;;17.23;;
70549;SDS011;58101;48.658;2.328;2022-07-23T01:39:08;32.08;;;17.70;;
70549;SDS011;58101;48.658;2.328;2022-07-23T01:41:46;34.97;;;17.25;;
70549;SDS011;58101;48.658;2.328;2022-07-23T01:44:11;33.75;;;18.10;;
70549;SDS011;58101;48.658;2.328;2022-07-23T01:46:38;34.85;;;17.80;;
70549;SDS011;58101;48.658;2.328;2022-07-23T01:49:27;30.38;;;17.42;;
70549;SDS011;58101;48.658;2.328;2022-07-23T01:54:43;35.33;;;17.52;;
70549;SDS011;58101;48.658;2.328;2022-07-23T01:57:09;32.33;;;17.55;;
70549;SDS011;58101;48.658;2.328;2022-07-23T01:59:34;31.63;;;17.83;;
70549;SDS011;58101;48.658;2.328;2022-07-23T02:02:00;32.47;;;17.10;;
70549;SDS011;58101;48.658;2.328;2022-07-23T02:04:26;29.63;;;16.30;;
70549;SDS011;58101;48.658;2.328;2022-07-23T02:06:57;28.20;;;15.75;;
70549;SDS011;58101;48.658;2.328;2022-07-23T02:09:26;28.60;;;16.83;;
70549;SDS011;58101;48.658;2.328;2022-07-23T02:11:54;31.90;;;17.17;;
70549;SDS011;58101;48.658;2.328;2022-07-23T02:14:19;32.03;;;16.80;;
70549;SDS011;58101;48.658;2.328;2022-07-23T02:16:45;30.70;;;16.88;;
70549;SDS011;58101;48.658;2.328;2022-07-23T02:19:11;30.15;;;17.60;;
70549;SDS011;58101;48.658;2.328;2022-07-23T02:21:36;30.10;;;17.02;;
70549;SDS011;58101;48.658;2.328;2022-07-23T02:24:02;29.85;;;16.65;;
70549;SDS011;58101;48.658;2.328;2022-07-23T02:26:28;28.50;;;16.55;;
70549;SDS011;58101;48.658;2.328;2022-07-23T02:28:54;30.98;;;17.02;;
70549;SDS011;58101;48.658;2.328;2022-07-23T02:31:20;30.45;;;17.52;;
70549;SDS011;58101;48.658;2.328;2022-07-23T02:33:45;30.98;;;16.98;;
70549;SDS011;58101;48.658;2.328;2022-07-23T02:36:11;29.02;;;16.85;;
70549;SDS011;58101;48.658;2.328;2022-07-23T02:38:37;32.30;;;17.73;;
70549;SDS011;58101;48.658;2.328;2022-07-23T02:41:05;30.45;;;16.98;;
70549;SDS011;58101;48.658;2.328;2022-07-23T02:43:31;32.50;;;17.17;;
70549;SDS011;58101;48.658;2.328;2022-07-23T02:45:57;30.70;;;16.98;;
70549;SDS011;58101;48.658;2.328;2022-07-23T02:48:22;32.65;;;17.42;;
70549;SDS011;58101;48.658;2.328;2022-07-23T02:50:48;32.42;;;17.27;;
70549;SDS011;58101;48.658;2.328;2022-07-23T02:53:13;31.98;;;16.42;;
70549;SDS011;58101;48.658;2.328;2022-07-23T02:55:39;28.73;;;16.10;;
70549;SDS011;58101;48.658;2.328;2022-07-23T02:58:05;31.88;;;15.82;;
70549;SDS011;58101;48.658;2.328;2022-07-23T03:00:30;30.23;;;16.45;;
70549;SDS011;58101;48.658;2.328;2022-07-23T03:05:44;28.80;;;15.95;;
70549;SDS011;58101;48.658;2.328;2022-07-23T03:08:09;27.60;;;15.65;;
70549;SDS011;58101;48.658;2.328;2022-07-23T03:13:03;26.95;;;15.10;;
70549;SDS011;58101;48.658;2.328;2022-07-23T03:15:29;29.35;;;16.52;;
70549;SDS011;58101;48.658;2.328;2022-07-23T03:20:45;31.33;;;15.93;;
70549;SDS011;58101;48.658;2.328;2022-07-23T03:29:58;26.92;;;14.90;;
70549;SDS011;58101;48.658;2.328;2022-07-23T03:32:25;27.23;;;15.07;;
70549;SDS011;58101;48.658;2.328;2022-07-23T03:35:03;27.85;;;14.65;;
70549;SDS011;58101;48.658;2.328;2022-07-23T03:37:29;26.85;;;14.77;;
70549;SDS011;58101;48.658;2.328;2022-07-23T03:39:55;26.27;;;14.15;;
70549;SDS011;58101;48.658;2.328;2022-07-23T03:42:20;28.30;;;15.02;;
70549;SDS011;58101;48.658;2.328;2022-07-23T03:44:46;25.55;;;14.98;;
70549;SDS011;58101;48.658;2.328;2022-07-23T03:47:21;23.75;;;13.88;;
70549;SDS011;58101;48.658;2.328;2022-07-23T03:50:07;25.42;;;14.25;;
70549;SDS011;58101;48.658;2.328;2022-07-23T03:52:45;29.00;;;15.07;;
70549;SDS011;58101;48.658;2.328;2022-07-23T03:55:11;28.60;;;14.68;;
70549;SDS011;58101;48.658;2.328;2022-07-23T03:57:37;29.40;;;15.52;;
70549;SDS011;58101;48.658;2.328;2022-07-23T04:00:06;28.40;;;15.82;;
70549;SDS011;58101;48.658;2.328;2022-07-23T04:02:34;27.23;;;14.70;;
70549;SDS011;58101;48.658;2.328;2022-07-23T04:05:00;27.00;;;15.63;;
70549;SDS011;58101;48.658;2.328;2022-07-23T04:07:25;27.40;;;15.57;;
70549;SDS011;58101;48.658;2.328;2022-07-23T04:10:10;27.08;;;15.25;;
70549;SDS011;58101;48.658;2.328;2022-07-23T04:19:00;28.65;;;15.05;;
70549;SDS011;58101;48.658;2.328;2022-07-23T04:21:32;27.00;;;14.50;;
70549;SDS011;58101;48.658;2.328;2022-07-23T04:23:57;26.42;;;14.57;;
70549;SDS011;58101;48.658;2.328;2022-07-23T04:26:23;26.80;;;15.02;;
70549;SDS011;58101;48.658;2.328;2022-07-23T04:28:49;27.17;;;15.57;;
70549;SDS011;58101;48.658;2.328;2022-07-23T04:31:14;25.60;;;14.15;;
70549;SDS011;58101;48.658;2.328;2022-07-23T04:33:40;27.73;;;14.27;;
70549;SDS011;58101;48.658;2.328;2022-07-23T04:36:05;28.73;;;15.50;;
70549;SDS011;58101;48.658;2.328;2022-07-23T04:38:31;27.63;;;14.73;;
70549;SDS011;58101;48.658;2.328;2022-07-23T04:40:57;27.27;;;15.07;;
70549;SDS011;58101;48.658;2.328;2022-07-23T04:43:23;27.85;;;15.38;;
70549;SDS011;58101;48.658;2.328;2022-07-23T04:46:07;27.75;;;14.82;;
70549;SDS011;58101;48.658;2.328;2022-07-23T04:48:35;27.67;;;15.25;;
70549;SDS011;58101;48.658;2.328;2022-07-23T04:51:01;27.42;;;14.90;;
70549;SDS011;58101;48.658;2.328;2022-07-23T04:53:42;31.15;;;15.88;;
70549;SDS011;58101;48.658;2.328;2022-07-23T04:56:07;28.08;;;15.32;;
70549;SDS011;58101;48.658;2.328;2022-07-23T05:01:32;27.52;;;15.10;;
70549;SDS011;58101;48.658;2.328;2022-07-23T05:03:58;28.05;;;15.48;;
70549;SDS011;58101;48.658;2.328;2022-07-23T05:09:52;29.75;;;15.27;;
70549;SDS011;58101;48.658;2.328;2022-07-23T05:12:17;27.45;;;15.13;;
70549;SDS011;58101;48.658;2.328;2022-07-23T05:14:43;30.20;;;15.15;;
70549;SDS011;58101;48.658;2.328;2022-07-23T05:17:08;28.20;;;15.45;;
70549;SDS011;58101;48.658;2.328;2022-07-23T05:22:44;39.55;;;16.85;;
70549;SDS011;58101;48.658;2.328;2022-07-23T05:25:10;29.30;;;15.43;;
70549;SDS011;58101;48.658;2.328;2022-07-23T05:27:36;29.50;;;15.10;;
70549;SDS011;58101;48.658;2.328;2022-07-23T05:33:18;33.78;;;15.95;;
70549;SDS011;58101;48.658;2.328;2022-07-23T05:35:49;26.40;;;14.27;;
70549;SDS011;58101;48.658;2.328;2022-07-23T05:38:24;26.92;;;14.43;;
70549;SDS011;58101;48.658;2.328;2022-07-23T05:40:49;27.92;;;15.10;;
70549;SDS011;58101;48.658;2.328;2022-07-23T05:43:15;27.33;;;14.18;;
70549;SDS011;58101;48.658;2.328;2022-07-23T05:45:41;27.08;;;14.45;;
70549;SDS011;58101;48.658;2.328;2022-07-23T05:48:06;32.38;;;14.60;;
70549;SDS011;58101;48.658;2.328;2022-07-23T05:50:41;31.08;;;15.20;;
70549;SDS011;58101;48.658;2.328;2022-07-23T05:53:06;30.67;;;15.45;;
70549;SDS011;58101;48.658;2.328;2022-07-23T05:55:33;28.52;;;14.48;;
70549;SDS011;58101;48.658;2.328;2022-07-23T05:57:59;29.55;;;14.98;;
70549;SDS011;58101;48.658;2.328;2022-07-23T06:00:25;25.60;;;13.80;;
70549;SDS011;58101;48.658;2.328;2022-07-23T06:02:58;27.27;;;14.27;;
70549;SDS011;58101;48.658;2.328;2022-07-23T06:05:24;27.08;;;14.13;;
70549;SDS011;58101;48.658;2.328;2022-07-23T06:07:59;27.60;;;13.85;;
70549;SDS011;58101;48.658;2.328;2022-07-23T06:10:25;29.65;;;14.35;;
70549;SDS011;58101;48.658;2.328;2022-07-23T06:12:50;28.27;;;14.60;;
70549;SDS011;58101;48.658;2.328;2022-07-23T06:15:16;33.38;;;14.10;;
70549;SDS011;58101;48.658;2.328;2022-07-23T06:17:42;31.40;;;14.65;;
70549;SDS011;58101;48.658;2.328;2022-07-23T06:20:08;27.40;;;14.43;;
70549;SDS011;58101;48.658;2.328;2022-07-23T06:25:46;26.15;;;14.10;;
70549;SDS011;58101;48.658;2.328;2022-07-23T06:28:12;26.48;;;13.10;;
70549;SDS011;58101;48.658;2.328;2022-07-23T06:30:37;25.23;;;13.98;;
70549;SDS011;58101;48.658;2.328;2022-07-23T06:33:03;26.60;;;13.90;;
70549;SDS011;58101;48.658;2.328;2022-07-23T06:35:29;27.27;;;13.25;;
70549;SDS011;58101;48.658;2.328;2022-07-23T06:37:58;25.95;;;13.32;;
70549;SDS011;58101;48.658;2.328;2022-07-23T06:40:23;27.90;;;13.27;;
70549;SDS011;58101;48.658;2.328;2022-07-23T06:42:55;24.88;;;13.20;;
70549;SDS011;58101;48.658;2.328;2022-07-23T06:45:20;25.50;;;13.05;;
70549;SDS011;58101;48.658;2.328;2022-07-23T06:47:47;25.05;;;12.75;;
70549;SDS011;58101;48.658;2.328;2022-07-23T06:50:12;23.75;;;12.30;;
70549;SDS011;58101;48.658;2.328;2022-07-23T06:52:38;27.08;;;13.13;;
70549;SDS011;58101;48.658;2.328;2022-07-23T06:55:04;27.17;;;13.75;;
70549;SDS011;58101;48.658;2.328;2022-07-23T06:57:30;28.67;;;13.20;;
70549;SDS011;58101;48.658;2.328;2022-07-23T06:59:55;27.67;;;13.05;;
70549;SDS011;58101;48.658;2.328;2022-07-23T07:02:21;31.17;;;14.07;;
70549;SDS011;58101;48.658;2.328;2022-07-23T07:04:47;29.90;;;13.95;;
70549;SDS011;58101;48.658;2.328;2022-07-23T07:07:12;31.45;;;14.63;;
70549;SDS011;58101;48.658;2.328;2022-07-23T07:09:38;36.55;;;15.65;;
70549;SDS011;58101;48.658;2.328;2022-07-23T07:12:04;35.40;;;15.25;;
70549;SDS011;58101;48.658;2.328;2022-07-23T07:14:33;38.60;;;15.60;;
70549;SDS011;58101;48.658;2.328;2022-07-23T07:16:58;34.13;;;14.52;;
70549;SDS011;58101;48.658;2.328;2022-07-23T07:19:24;37.15;;;14.88;;
70549;SDS011;58101;48.658;2.328;2022-07-23T07:21:50;38.35;;;15.23;;
70549;SDS011;58101;48.658;2.328;2022-07-23T07:27:25;35.35;;;14.73;;
70549;SDS011;58101;48.658;2.328;2022-07-23T07:29:51;32.88;;;15.02;;
70549;SDS011;58101;48.658;2.328;2022-07-23T07:35:35;38.60;;;14.75;;
70549;SDS011;58101;48.658;2.328;2022-07-23T07:38:01;37.28;;;15.20;;
70549;SDS011;58101;48.658;2.328;2022-07-23T07:40:26;34.03;;;14.52;;
70549;SDS011;58101;48.658;2.328;2022-07-23T07:42:53;38.85;;;15.30;;
70549;SDS011;58101;48.658;2.328;2022-07-23T07:45:22;35.33;;;15.30;;
70549;SDS011;58101;48.658;2.328;2022-07-23T07:47:48;34.38;;;14.82;;
70549;SDS011;58101;48.658;2.328;2022-07-23T07:50:15;33.03;;;13.90;;
70549;SDS011;58101;48.658;2.328;2022-07-23T07:52:44;39.25;;;15.13;;
70549;SDS011;58101;48.658;2.328;2022-07-23T07:55:10;39.38;;;15.07;;
70549;SDS011;58101;48.658;2.328;2022-07-23T07:57:36;32.47;;;13.55;;
70549;SDS011;58101;48.658;2.328;2022-07-23T08:00:06;29.42;;;13.48;;
70549;SDS011;58101;48.658;2.328;2022-07-23T08:18:55;29.63;;;14.32;;
70549;SDS011;58101;48.658;2.328;2022-07-23T08:21:20;31.35;;;13.93;;
70549;SDS011;58101;48.658;2.328;2022-07-23T08:23:46;31.45;;;13.80;;
70549;SDS011;58101;48.658;2.328;2022-07-23T08:26:12;31.80;;;13.95;;
70549;SDS011;58101;48.658;2.328;2022-07-23T08:28:37;33.72;;;14.60;;
70549;SDS011;58101;48.658;2.328;2022-07-23T08:34:13;32.53;;;13.80;;
70549;SDS011;58101;48.658;2.328;2022-07-23T08:39:34;25.80;;;12.52;;
70549;SDS011;58101;48.658;2.328;2022-07-23T08:41:59;28.30;;;13.48;;
70549;SDS011;58101;48.658;2.328;2022-07-23T08:44:25;30.77;;;14.52;;
70549;SDS011;58101;48.658;2.328;2022-07-23T08:46:51;31.38;;;13.25;;
70549;SDS011;58101;48.658;2.328;2022-07-23T08:49:17;28.00;;;12.13;;
70549;SDS011;58101;48.658;2.328;2022-07-23T08:51:51;25.13;;;11.65;;
70549;SDS011;58101;48.658;2.328;2022-07-23T08:54:17;27.85;;;12.50;;
70549;SDS011;58101;48.658;2.328;2022-07-23T08:56:43;28.30;;;12.77;;
70549;SDS011;58101;48.658;2.328;2022-07-23T08:59:09;26.42;;;12.48;;
70549;SDS011;58101;48.658;2.328;2022-07-23T09:01:38;27.25;;;12.35;;
70549;SDS011;58101;48.658;2.328;2022-07-23T09:04:04;27.00;;;12.60;;
70549;SDS011;58101;48.658;2.328;2022-07-23T09:06:32;28.88;;;12.50;;
70549;SDS011;58101;48.658;2.328;2022-07-23T09:08:58;27.05;;;12.38;;
70549;SDS011;58101;48.658;2.328;2022-07-23T09:11:48;24.55;;;12.82;;
70549;SDS011;58101;48.658;2.328;2022-07-23T09:14:44;26.85;;;13.35;;
70549;SDS011;58101;48.658;2.328;2022-07-23T09:17:15;26.50;;;12.35;;
70549;SDS011;58101;48.658;2.328;2022-07-23T09:19:49;29.23;;;12.30;;
70549;SDS011;58101;48.658;2.328;2022-07-23T09:25:09;24.83;;;12.77;;
70549;SDS011;58101;48.658;2.328;2022-07-23T09:31:18;26.45;;;11.88;;
70549;SDS011;58101;48.658;2.328;2022-07-23T09:33:46;25.75;;;12.80;;
70549;SDS011;58101;48.658;2.328;2022-07-23T09:36:11;25.35;;;12.35;;
70549;SDS011;58101;48.658;2.328;2022-07-23T09:38:47;25.63;;;13.15;;
70549;SDS011;58101;48.658;2.328;2022-07-23T09:41:14;24.13;;;12.68;;
70549;SDS011;58101;48.658;2.328;2022-07-23T09:46:22;21.58;;;11.57;;
70549;SDS011;58101;48.658;2.328;2022-07-23T09:48:50;26.65;;;12.77;;
70549;SDS011;58101;48.658;2.328;2022-07-23T09:51:17;35.03;;;12.82;;
70549;SDS011;58101;48.658;2.328;2022-07-23T09:54:02;27.98;;;12.25;;
70549;SDS011;58101;48.658;2.328;2022-07-23T09:56:30;23.30;;;12.20;;
70549;SDS011;58101;48.658;2.328;2022-07-23T09:58:58;23.73;;;11.95;;
70549;SDS011;58101;48.658;2.328;2022-07-23T10:01:44;21.98;;;11.77;;
70549;SDS011;58101;48.658;2.328;2022-07-23T10:04:28;23.23;;;11.93;;
70549;SDS011;58101;48.658;2.328;2022-07-23T10:07:04;23.23;;;12.52;;
70549;SDS011;58101;48.658;2.328;2022-07-23T10:09:33;23.52;;;12.43;;
70549;SDS011;58101;48.658;2.328;2022-07-23T10:15:30;21.00;;;11.02;;
70549;SDS011;58101;48.658;2.328;2022-07-23T10:20:24;19.52;;;10.30;;
70549;SDS011;58101;48.658;2.328;2022-07-23T10:28:55;21.25;;;11.32;;
70549;SDS011;58101;48.658;2.328;2022-07-23T10:31:41;20.83;;;10.68;;
70549;SDS011;58101;48.658;2.328;2022-07-23T10:34:28;18.88;;;10.38;;
70549;SDS011;58101;48.658;2.328;2022-07-23T10:42:39;21.10;;;11.00;;
70549;SDS011;58101;48.658;2.328;2022-07-23T10:48:13;24.92;;;11.05;;
70549;SDS011;58101;48.658;2.328;2022-07-23T10:51:10;21.30;;;11.07;;
70549;SDS011;58101;48.658;2.328;2022-07-23T10:59:14;18.35;;;10.30;;
70549;SDS011;58101;48.658;2.328;2022-07-23T11:01:40;18.38;;;10.23;;
70549;SDS011;58101;48.658;2.328;2022-07-23T11:04:05;20.83;;;10.52;;
70549;SDS011;58101;48.658;2.328;2022-07-23T11:17:24;17.25;;;9.50;;
70549;SDS011;58101;48.658;2.328;2022-07-23T11:22:46;15.68;;;9.05;;
70549;SDS011;58101;48.658;2.328;2022-07-23T11:27:52;17.65;;;8.98;;
70549;SDS011;58101;48.658;2.328;2022-07-23T11:32:50;15.02;;;9.00;;
70549;SDS011;58101;48.658;2.328;2022-07-23T11:37:45;18.17;;;8.85;;
70549;SDS011;58101;48.658;2.328;2022-07-23T11:40:13;15.27;;;9.15;;
70549;SDS011;58101;48.658;2.328;2022-07-23T11:48:25;14.32;;;8.68;;
70549;SDS011;58101;48.658;2.328;2022-07-23T11:50:54;14.07;;;8.63;;
70549;SDS011;58101;48.658;2.328;2022-07-23T11:53:30;15.18;;;9.10;;
70549;SDS011;58101;48.658;2.328;2022-07-23T11:56:08;15.82;;;9.27;;
70549;SDS011;58101;48.658;2.328;2022-07-23T11:58:54;14.77;;;8.82;;
70549;SDS011;58101;48.658;2.328;2022-07-23T12:01:22;14.25;;;8.55;;
70549;SDS011;58101;48.658;2.328;2022-07-23T12:03:51;15.95;;;8.95;;
70549;SDS011;58101;48.658;2.328;2022-07-23T12:06:17;15.65;;;8.63;;
70549;SDS011;58101;48.658;2.328;2022-07-23T12:08:43;13.75;;;8.50;;
70549;SDS011;58101;48.658;2.328;2022-07-23T12:11:11;16.83;;;8.80;;
70549;SDS011;58101;48.658;2.328;2022-07-23T12:13:37;15.90;;;8.90;;
70549;SDS011;58101;48.658;2.328;2022-07-23T12:16:15;14.52;;;9.25;;
70549;SDS011;58101;48.658;2.328;2022-07-23T12:18:41;13.73;;;8.40;;
70549;SDS011;58101;48.658;2.328;2022-07-23T12:21:06;16.80;;;8.57;;
70549;SDS011;58101;48.658;2.328;2022-07-23T12:23:33;15.23;;;8.77;;
70549;SDS011;58101;48.658;2.328;2022-07-23T12:26:00;16.25;;;8.13;;
70549;SDS011;58101;48.658;2.328;2022-07-23T12:28:28;15.20;;;8.45;;
70549;SDS011;58101;48.658;2.328;2022-07-23T12:30:55;12.93;;;8.02;;
70549;SDS011;58101;48.658;2.328;2022-07-23T12:35:52;14.50;;;7.93;;
70549;SDS011;58101;48.658;2.328;2022-07-23T12:38:42;13.68;;;7.72;;
70549;SDS011;58101;48.658;2.328;2022-07-23T12:41:08;14.20;;;7.78;;
70549;SDS011;58101;48.658;2.328;2022-07-23T12:43:48;13.80;;;7.70;;
70549;SDS011;58101;48.658;2.328;2022-07-23T12:56:40;12.60;;;6.88;;
70549;SDS011;58101;48.658;2.328;2022-07-23T12:59:10;11.93;;;6.88;;
70549;SDS011;58101;48.658;2.328;2022-07-23T13:04:19;12.32;;;6.72;;
70549;SDS011;58101;48.658;2.328;2022-07-23T13:06:59;10.35;;;6.50;;
70549;SDS011;58101;48.658;2.328;2022-07-23T13:09:29;12.38;;;6.90;;
70549;SDS011;58101;48.658;2.328;2022-07-23T13:11:57;13.90;;;7.15;;
70549;SDS011;58101;48.658;2.328;2022-07-23T13:14:24;12.02;;;6.68;;
70549;SDS011;58101;48.658;2.328;2022-07-23T13:16:51;12.35;;;6.63;;
70549;SDS011;58101;48.658;2.328;2022-07-23T13:19:17;12.93;;;6.53;;
70549;SDS011;58101;48.658;2.328;2022-07-23T13:21:43;10.82;;;6.05;;
70549;SDS011;58101;48.658;2.328;2022-07-23T13:24:10;12.07;;;6.57;;
70549;SDS011;58101;48.658;2.328;2022-07-23T13:26:42;11.77;;;6.90;;
70549;SDS011;58101;48.658;2.328;2022-07-23T13:29:08;10.25;;;6.15;;
70549;SDS011;58101;48.658;2.328;2022-07-23T13:31:37;12.38;;;6.90;;
70549;SDS011;58101;48.658;2.328;2022-07-23T13:34:08;13.80;;;7.20;;
70549;SDS011;58101;48.658;2.328;2022-07-23T13:36:35;14.57;;;6.70;;
70549;SDS011;58101;48.658;2.328;2022-07-23T13:39:13;11.93;;;6.82;;
70549;SDS011;58101;48.658;2.328;2022-07-23T13:41:39;12.43;;;7.18;;
70549;SDS011;58101;48.658;2.328;2022-07-23T13:44:04;11.77;;;6.43;;
70549;SDS011;58101;48.658;2.328;2022-07-23T13:46:49;11.32;;;6.32;;
70549;SDS011;58101;48.658;2.328;2022-07-23T13:49:18;13.55;;;7.00;;
70549;SDS011;58101;48.658;2.328;2022-07-23T13:51:43;12.35;;;6.72;;
70549;SDS011;58101;48.658;2.328;2022-07-23T13:54:09;13.23;;;6.70;;
70549;SDS011;58101;48.658;2.328;2022-07-23T13:56:35;13.60;;;7.03;;
70549;SDS011;58101;48.658;2.328;2022-07-23T13:59:01;12.75;;;7.13;;
70549;SDS011;58101;48.658;2.328;2022-07-23T14:01:27;12.98;;;6.95;;
70549;SDS011;58101;48.658;2.328;2022-07-23T14:03:52;10.93;;;6.38;;
70549;SDS011;58101;48.658;2.328;2022-07-23T14:06:18;11.70;;;6.82;;
70549;SDS011;58101;48.658;2.328;2022-07-23T14:08:44;15.38;;;6.20;;
70549;SDS011;58101;48.658;2.328;2022-07-23T14:11:09;11.18;;;5.90;;
70549;SDS011;58101;48.658;2.328;2022-07-23T14:13:41;11.38;;;6.63;;
70549;SDS011;58101;48.658;2.328;2022-07-23T14:16:56;10.77;;;6.07;;
70549;SDS011;58101;48.658;2.328;2022-07-23T14:19:22;13.95;;;6.50;;
70549;SDS011;58101;48.658;2.328;2022-07-23T14:21:48;12.90;;;6.25;;
70549;SDS011;58101;48.658;2.328;2022-07-23T14:24:14;12.95;;;6.30;;
70549;SDS011;58101;48.658;2.328;2022-07-23T14:26:40;13.63;;;5.93;;
70549;SDS011;58101;48.658;2.328;2022-07-23T14:29:09;12.95;;;6.38;;
70549;SDS011;58101;48.658;2.328;2022-07-23T14:31:40;11.07;;;5.57;;
70549;SDS011;58101;48.658;2.328;2022-07-23T14:34:13;10.48;;;5.65;;
70549;SDS011;58101;48.658;2.328;2022-07-23T14:36:42;12.30;;;5.80;;
70549;SDS011;58101;48.658;2.328;2022-07-23T14:39:17;12.05;;;5.93;;
70549;SDS011;58101;48.658;2.328;2022-07-23T14:41:43;11.40;;;5.40;;
70549;SDS011;58101;48.658;2.328;2022-07-23T14:44:09;12.20;;;5.88;;
70549;SDS011;58101;48.658;2.328;2022-07-23T14:46:35;10.55;;;5.18;;
70549;SDS011;58101;48.658;2.328;2022-07-23T14:49:00;13.10;;;6.03;;
70549;SDS011;58101;48.658;2.328;2022-07-23T14:51:27;13.23;;;6.30;;
70549;SDS011;58101;48.658;2.328;2022-07-23T14:53:52;9.30;;;5.30;;
70549;SDS011;58101;48.658;2.328;2022-07-23T14:56:18;9.35;;;5.20;;
70549;SDS011;58101;48.658;2.328;2022-07-23T15:01:44;9.98;;;5.22;;
70549;SDS011;58101;48.658;2.328;2022-07-23T15:04:15;10.75;;;5.30;;
70549;SDS011;58101;48.658;2.328;2022-07-23T15:09:09;10.90;;;4.97;;
70549;SDS011;58101;48.658;2.328;2022-07-23T15:11:34;9.32;;;4.78;;
70549;SDS011;58101;48.658;2.328;2022-07-23T15:16:59;8.38;;;4.82;;
70549;SDS011;58101;48.658;2.328;2022-07-23T15:19:24;9.10;;;5.13;;
70549;SDS011;58101;48.658;2.328;2022-07-23T15:21:53;9.95;;;5.00;;
70549;SDS011;58101;48.658;2.328;2022-07-23T15:24:19;11.23;;;5.50;;
70549;SDS011;58101;48.658;2.328;2022-07-23T15:27:00;10.25;;;4.80;;
70549;SDS011;58101;48.658;2.328;2022-07-23T15:29:50;9.05;;;4.68;;
70549;SDS011;58101;48.658;2.328;2022-07-23T15:32:38;9.88;;;5.03;;
70549;SDS011;58101;48.658;2.328;2022-07-23T15:35:04;10.27;;;4.68;;
70549;SDS011;58101;48.658;2.328;2022-07-23T15:37:45;8.77;;;4.65;;
70549;SDS011;58101;48.658;2.328;2022-07-23T15:40:11;8.90;;;4.45;;
70549;SDS011;58101;48.658;2.328;2022-07-23T15:42:37;11.73;;;5.38;;
70549;SDS011;58101;48.658;2.328;2022-07-23T15:45:03;10.18;;;4.82;;
70549;SDS011;58101;48.658;2.328;2022-07-23T15:47:30;9.13;;;4.47;;
70549;SDS011;58101;48.658;2.328;2022-07-23T15:49:58;9.00;;;4.85;;
70549;SDS011;58101;48.658;2.328;2022-07-23T15:52:24;10.18;;;4.40;;
70549;SDS011;58101;48.658;2.328;2022-07-23T15:54:50;9.32;;;4.70;;
70549;SDS011;58101;48.658;2.328;2022-07-23T15:57:16;11.07;;;4.75;;
70549;SDS011;58101;48.658;2.328;2022-07-23T15:59:42;10.18;;;4.78;;
70549;SDS011;58101;48.658;2.328;2022-07-23T16:02:07;8.40;;;4.50;;
70549;SDS011;58101;48.658;2.328;2022-07-23T16:04:33;9.30;;;4.45;;
70549;SDS011;58101;48.658;2.328;2022-07-23T16:06:59;9.32;;;4.57;;
70549;SDS011;58101;48.658;2.328;2022-07-23T16:11:51;9.07;;;4.32;;
70549;SDS011;58101;48.658;2.328;2022-07-23T16:14:18;10.15;;;4.80;;
70549;SDS011;58101;48.658;2.328;2022-07-23T16:16:44;11.18;;;4.50;;
70549;SDS011;58101;48.658;2.328;2022-07-23T16:19:09;8.85;;;4.32;;
70549;SDS011;58101;48.658;2.328;2022-07-23T16:27:18;9.88;;;4.75;;
70549;SDS011;58101;48.658;2.328;2022-07-23T16:29:44;9.85;;;4.70;;
70549;SDS011;58101;48.658;2.328;2022-07-23T16:34:35;9.63;;;4.82;;
70549;SDS011;58101;48.658;2.328;2022-07-23T16:37:01;10.85;;;5.13;;
70549;SDS011;58101;48.658;2.328;2022-07-23T16:44:55;12.75;;;6.30;;
70549;SDS011;58101;48.658;2.328;2022-07-23T16:49:47;12.88;;;7.75;;
70549;SDS011;58101;48.658;2.328;2022-07-23T17:07:43;11.68;;;6.75;;
70549;SDS011;58101;48.658;2.328;2022-07-23T17:12:35;10.35;;;6.13;;
70549;SDS011;58101;48.658;2.328;2022-07-23T17:15:07;12.23;;;5.55;;
70549;SDS011;58101;48.658;2.328;2022-07-23T17:17:33;13.43;;;5.45;;
70549;SDS011;58101;48.658;2.328;2022-07-23T17:20:00;9.45;;;5.05;;
70549;SDS011;58101;48.658;2.328;2022-07-23T17:25:37;11.00;;;5.35;;
70549;SDS011;58101;48.658;2.328;2022-07-23T17:28:04;11.43;;;5.18;;
70549;SDS011;58101;48.658;2.328;2022-07-23T17:30:57;10.32;;;4.70;;
70549;SDS011;58101;48.658;2.328;2022-07-23T17:39:37;9.48;;;4.70;;
70549;SDS011;58101;48.658;2.328;2022-07-23T17:42:03;10.20;;;4.43;;
70549;SDS011;58101;48.658;2.328;2022-07-23T17:47:32;9.82;;;4.57;;
70549;SDS011;58101;48.658;2.328;2022-07-23T17:52:24;10.25;;;4.15;;
70549;SDS011;58101;48.658;2.328;2022-07-23T17:57:27;10.25;;;4.40;;
70549;SDS011;58101;48.658;2.328;2022-07-23T17:59:56;8.77;;;4.32;;
70549;SDS011;58101;48.658;2.328;2022-07-23T18:02:37;11.80;;;4.25;;
70549;SDS011;58101;48.658;2.328;2022-07-23T18:08:40;9.10;;;4.40;;
70549;SDS011;58101;48.658;2.328;2022-07-23T18:13:31;9.18;;;4.22;;
70549;SDS011;58101;48.658;2.328;2022-07-23T18:16:16;9.98;;;4.10;;
70549;SDS011;58101;48.658;2.328;2022-07-23T18:18:41;7.97;;;4.15;;
70549;SDS011;58101;48.658;2.328;2022-07-23T18:21:07;10.35;;;4.45;;
70549;SDS011;58101;48.658;2.328;2022-07-23T18:31:45;7.72;;;4.22;;